Time;durP1;ratioP1;P1;durP2;ratioP2;P2;SDS_P1;SDS_P2;PMS_P1;PMS_P2;Temp;Humidity;BMP_temperature;BMP_pressure;BME280_temperature;BME280_humidity;BME280_pressure;Samples;Min_cycle;Max_cycle;Signal;HPM_P1;HPM_P2
2021/11/02 00:00:29;;;;;;;3.28;1.23;;;22.60;54.00;;;;;;5036278;28;20138;-52
2021/11/02 00:02:54;;;;;;;2.83;1.20;;;22.60;54.10;;;;;;5049183;28;20074;-53
2021/11/02 00:05:20;;;;;;;2.83;1.10;;;22.60;54.10;;;;;;5040198;28;20447;-56
2021/11/02 00:07:46;;;;;;;1.95;1.00;;;22.60;54.10;;;;;;5050770;28;20043;-53
2021/11/02 00:10:12;;;;;;;2.85;1.20;;;22.50;54.10;;;;;;5047767;28;20017;-52
2021/11/02 00:12:39;;;;;;;2.22;1.10;;;22.60;54.10;;;;;;5053081;28;20620;-58
2021/11/02 00:15:05;;;;;;;1.63;0.98;;;22.50;54.10;;;;;;5055132;28;20108;-58
2021/11/02 00:17:34;;;;;;;2.10;1.10;;;22.50;54.10;;;;;;5035112;28;20186;-58
2021/11/02 00:20:02;;;;;;;2.30;1.00;;;22.50;54.10;;;;;;5030261;28;20052;-57
2021/11/02 00:22:28;;;;;;;1.63;1.05;;;22.50;54.20;;;;;;5037209;28;20453;-58
2021/11/02 00:27:25;;;;;;;1.95;1.00;;;22.50;54.10;;;;;;5035771;28;20022;-56
2021/11/02 00:29:52;;;;;;;2.17;1.25;;;22.50;54.20;;;;;;5056238;28;20025;-57
2021/11/02 00:32:18;;;;;;;3.05;1.27;;;22.50;54.10;;;;;;5039310;28;20549;-54
2021/11/02 00:34:44;;;;;;;2.20;1.10;;;22.50;54.20;;;;;;5047650;28;20108;-59
2021/11/02 00:37:09;;;;;;;2.47;1.08;;;22.50;54.20;;;;;;5044636;28;20044;-57
2021/11/02 00:39:35;;;;;;;2.88;1.10;;;22.40;54.20;;;;;;5040907;28;20102;-57
2021/11/02 00:42:01;;;;;;;2.50;1.20;;;22.40;54.10;;;;;;5045869;28;20040;-56
2021/11/02 00:44:27;;;;;;;2.58;1.02;;;22.40;54.10;;;;;;5037915;28;20037;-54
2021/11/02 00:46:55;;;;;;;1.63;1.00;;;22.40;54.20;;;;;;5035787;28;20029;-56
2021/11/02 00:49:23;;;;;;;2.00;1.10;;;22.40;54.10;;;;;;5048518;28;20029;-58
2021/11/02 00:51:50;;;;;;;1.83;1.00;;;22.40;54.10;;;;;;5040472;28;20056;-58
2021/11/02 00:54:15;;;;;;;2.47;1.00;;;22.40;54.10;;;;;;5032041;28;20032;-58
2021/11/02 00:56:42;;;;;;;1.73;1.10;;;22.40;54.10;;;;;;5034799;28;20041;-58
2021/11/02 00:59:08;;;;;;;2.22;1.20;;;22.40;54.10;;;;;;5044159;28;20046;-58
2021/11/02 01:01:34;;;;;;;3.03;1.05;;;22.40;54.10;;;;;;5048791;28;20056;-56
2021/11/02 01:04:04;;;;;;;2.05;1.00;;;22.40;54.10;;;;;;5046082;28;20066;-55
2021/11/02 01:06:34;;;;;;;2.33;1.00;;;22.40;54.10;;;;;;5042614;28;20069;-57
2021/11/02 01:09:01;;;;;;;1.80;1.00;;;22.40;54.10;;;;;;5038782;28;20025;-53
2021/11/02 01:11:27;;;;;;;2.28;1.20;;;22.40;54.20;;;;;;5043634;28;20037;-56
2021/11/02 01:13:53;;;;;;;3.10;1.10;;;22.30;54.10;;;;;;5048328;28;20504;-54
2021/11/02 01:16:22;;;;;;;1.80;1.10;;;22.30;54.10;;;;;;5040023;28;20492;-57
2021/11/02 01:18:47;;;;;;;2.85;1.00;;;22.30;54.10;;;;;;5041763;28;20457;-57
2021/11/02 01:21:14;;;;;;;1.83;1.00;;;22.30;54.10;;;;;;5042828;28;20120;-57
2021/11/02 01:23:39;;;;;;;1.63;1.00;;;22.30;54.10;;;;;;5051088;28;20032;-58
2021/11/02 01:26:06;;;;;;;2.47;1.00;;;22.30;54.10;;;;;;5044147;28;20140;-56
2021/11/02 01:28:31;;;;;;;2.22;1.02;;;22.30;54.10;;;;;;5036917;28;20021;-58
2021/11/02 01:30:57;;;;;;;2.05;1.10;;;22.30;54.10;;;;;;5032454;28;20708;-53
2021/11/02 01:33:23;;;;;;;2.03;0.98;;;22.30;54.10;;;;;;5042722;28;20445;-59
2021/11/02 01:35:49;;;;;;;1.58;0.95;;;22.20;54.10;;;;;;5049655;28;20476;-58
2021/11/02 01:38:16;;;;;;;1.85;1.05;;;22.20;54.10;;;;;;5045865;28;20097;-57
2021/11/02 01:40:42;;;;;;;1.92;1.00;;;22.20;54.60;;;;;;5033644;28;20139;-57
2021/11/02 01:43:07;;;;;;;2.15;1.10;;;22.20;54.10;;;;;;5037903;28;20723;-59
2021/11/02 01:45:33;;;;;;;1.70;1.08;;;22.20;54.10;;;;;;5045042;28;20033;-58
2021/11/02 01:47:59;;;;;;;1.98;1.00;;;22.20;54.10;;;;;;5043821;28;20025;-54
2021/11/02 01:50:24;;;;;;;1.70;1.10;;;22.20;54.20;;;;;;5049200;28;20530;-53
2021/11/02 01:52:50;;;;;;;4.22;1.00;;;22.20;54.10;;;;;;5047257;28;20048;-57
2021/11/02 01:55:17;;;;;;;3.38;1.10;;;22.10;54.10;;;;;;5058518;28;20024;-55
2021/11/02 01:57:44;;;;;;;2.00;1.10;;;22.10;54.10;;;;;;5044118;28;20083;-57
2021/11/02 02:00:13;;;;;;;1.55;1.00;;;22.10;54.10;;;;;;5045206;28;20021;-55
2021/11/02 02:02:48;;;;;;;1.33;0.90;;;22.10;54.20;;;;;;5036067;28;20021;-58
2021/11/02 02:05:26;;;;;;;2.55;1.02;;;22.10;54.10;;;;;;5046727;28;20052;-54
2021/11/02 02:08:01;;;;;;;2.13;1.05;;;22.20;54.20;;;;;;5040613;28;20592;-59
2021/11/02 02:10:40;;;;;;;2.58;1.20;;;22.10;54.20;;;;;;5049141;28;20466;-57
2021/11/02 02:13:13;;;;;;;1.67;1.10;;;22.10;54.20;;;;;;5038513;28;20037;-53
2021/11/02 02:16:07;;;;;;;2.55;1.38;;;22.10;54.20;;;;;;5034346;28;20423;-56
2021/11/02 02:18:36;;;;;;;2.17;1.00;;;22.10;54.20;;;;;;5041194;28;20029;-57
2021/11/02 02:21:10;;;;;;;;;;;22.10;54.20;;;;;;5044531;28;20064;-55
2021/11/02 02:24:11;;;;;;;1.30;0.73;;;22.10;54.20;;;;;;5046580;28;19928;-56
2021/11/02 02:27:15;;;;;;;1.40;0.90;;;22.00;54.10;;;;;;5032037;28;20048;-58
2021/11/02 02:29:43;;;;;;;1.65;0.90;;;22.00;54.20;;;;;;5035842;28;20052;-56
2021/11/02 02:32:16;;;;;;;1.20;0.90;;;22.00;54.20;;;;;;5049301;28;20491;-57
2021/11/02 02:34:45;;;;;;;1.52;1.10;;;22.00;54.20;;;;;;5060408;28;20074;-58
2021/11/02 02:37:11;;;;;;;1.20;0.82;;;22.00;54.20;;;;;;5040661;28;20097;-57
2021/11/02 02:39:37;;;;;;;1.58;0.93;;;22.00;54.20;;;;;;5046237;28;20161;-55
2021/11/02 02:42:04;;;;;;;1.55;0.90;;;22.00;54.20;;;;;;5050910;28;20032;-57
2021/11/02 02:44:31;;;;;;;1.75;1.10;;;22.00;54.20;;;;;;5047035;28;20143;-58
2021/11/02 02:46:57;;;;;;;1.77;0.90;;;22.00;54.20;;;;;;5041345;28;20028;-59
2021/11/02 02:49:24;;;;;;;1.00;0.90;;;22.00;54.30;;;;;;5048697;28;21700;-58
2021/11/02 02:51:51;;;;;;;2.72;1.20;;;22.00;54.20;;;;;;5039101;28;20715;-54
2021/11/02 02:54:17;;;;;;;1.75;0.98;;;21.90;54.20;;;;;;5053861;28;20067;-55
2021/11/02 02:56:45;;;;;;;2.17;1.15;;;21.90;54.20;;;;;;5030737;28;20028;-58
2021/11/02 02:59:11;;;;;;;1.92;1.00;;;21.90;54.20;;;;;;5049093;28;20614;-56
2021/11/02 03:01:38;;;;;;;1.40;1.00;;;21.90;54.20;;;;;;5040426;28;20060;-56
2021/11/02 03:04:07;;;;;;;1.10;0.85;;;21.90;54.20;;;;;;5061001;28;20122;-54
2021/11/02 03:06:36;;;;;;;1.33;0.90;;;21.90;54.20;;;;;;5031882;28;20068;-56
2021/11/02 03:09:07;;;;;;;1.63;0.90;;;21.90;54.20;;;;;;5043725;28;20110;-58
2021/11/02 03:11:34;;;;;;;1.70;0.98;;;21.90;54.30;;;;;;5037664;28;20033;-57
2021/11/02 03:14:06;;;;;;;1.50;0.85;;;21.90;54.30;;;;;;5042142;28;20040;-58
2021/11/02 03:49:22;;;;;;;1.20;0.90;;;21.80;54.20;;;;;;5041165;28;20032;-54
2021/11/02 04:22:24;;;;;;;1.30;0.90;;;21.70;54.30;;;;;;5046040;28;20056;-58
2021/11/02 04:35:16;;;;;;;1.70;1.00;;;21.70;54.30;;;;;;5044878;28;20036;-60
2021/11/02 05:10:30;;;;;;;1.20;0.80;;;21.60;54.30;;;;;;5044602;28;20056;-58
2021/11/02 05:48:11;;;;;;;1.33;0.82;;;21.50;54.40;;;;;;5032847;28;20032;-58
2021/11/02 05:53:37;;;;;;;1.35;1.00;;;21.50;54.40;;;;;;5027581;28;20030;-58
2021/11/02 05:56:22;;;;;;;1.95;1.15;;;21.50;54.40;;;;;;5046410;28;20036;-51
2021/11/02 06:06:35;;;;;;;0.70;0.70;;;21.50;54.40;;;;;;5040753;28;20036;-58
2021/11/02 06:23:43;;;;;;;1.40;0.90;;;21.40;54.40;;;;;;5038887;28;20052;-58
2021/11/02 06:28:58;;;;;;;0.63;0.63;;;21.40;54.40;;;;;;5044196;28;20104;-57
2021/11/02 06:36:33;;;;;;;1.02;0.70;;;21.40;54.50;;;;;;5034688;28;20025;-54
2021/11/02 06:47:52;;;;;;;1.25;0.80;;;21.40;54.50;;;;;;5040632;28;20513;-58
2021/11/02 06:56:40;;;;;;;0.82;0.63;;;21.40;54.50;;;;;;5038351;28;20085;-56
2021/11/02 07:15:14;;;;;;;2.45;0.68;;;21.40;54.60;;;;;;5041554;28;20135;-55
2021/11/02 07:19:24;;;;;;;0.77;0.70;;;21.40;54.60;;;;;;5029727;28;20806;-56
2021/11/02 07:24:49;;;;;;;1.52;0.80;;;21.40;54.60;;;;;;5037164;28;20742;-57
2021/11/02 07:27:58;;;;;;;;;;;21.40;54.60;;;;;;5031033;28;20033;-56
2021/11/02 08:47:46;;;;;;;1.33;0.80;;;21.30;54.80;;;;;;5038744;28;20036;-57
2021/11/02 08:50:17;;;;;;;1.17;0.80;;;21.30;54.80;;;;;;5044153;28;20177;-57
2021/11/02 08:52:51;;;;;;;1.38;0.80;;;21.30;54.80;;;;;;5034573;28;20432;-56
2021/11/02 08:55:18;;;;;;;1.77;0.70;;;21.30;55.40;;;;;;5029858;28;20096;-55
2021/11/02 08:57:46;;;;;;;0.93;0.65;;;21.30;54.90;;;;;;5032531;28;20369;-57
2021/11/02 09:00:12;;;;;;;1.08;0.80;;;21.30;54.90;;;;;;5036856;28;20021;-58
2021/11/02 09:02:42;;;;;;;1.75;0.80;;;21.30;54.90;;;;;;5043962;28;20404;-55
2021/11/02 09:05:20;;;;;;;1.80;0.90;;;21.30;54.90;;;;;;5043439;28;20025;-58
2021/11/02 09:07:46;;;;;;;1.58;0.95;;;21.30;55.00;;;;;;5047141;28;20048;-58
2021/11/02 09:10:18;;;;;;;2.92;0.90;;;21.30;54.90;;;;;;5043753;28;20147;-57
2021/11/02 09:12:56;;;;;;;1.50;0.90;;;21.30;55.00;;;;;;5044728;28;20044;-58
2021/11/02 09:15:24;;;;;;;1.65;0.90;;;21.30;55.00;;;;;;5045900;28;20032;-56
2021/11/02 09:17:53;;;;;;;1.70;0.90;;;21.30;55.00;;;;;;5040046;28;20029;-57
2021/11/02 09:20:20;;;;;;;2.47;1.10;;;21.30;55.00;;;;;;5034998;28;20037;-56
2021/11/02 09:22:46;;;;;;;1.70;0.90;;;21.30;55.00;;;;;;5034127;28;20045;-58
2021/11/02 09:25:13;;;;;;;1.88;0.80;;;21.30;55.00;;;;;;5029093;28;20068;-57
2021/11/02 09:27:39;;;;;;;1.23;0.75;;;21.30;55.00;;;;;;5033465;28;20649;-58
2021/11/02 09:30:06;;;;;;;1.70;0.90;;;21.30;55.00;;;;;;5032399;28;20500;-57
2021/11/02 09:32:34;;;;;;;1.10;0.70;;;21.30;55.00;;;;;;5050804;28;20653;-54
2021/11/02 09:35:00;;;;;;;2.25;0.80;;;21.30;55.00;;;;;;5041037;28;20017;-58
2021/11/02 09:37:33;;;;;;;2.90;1.00;;;21.30;55.00;;;;;;5037773;28;20037;-58
2021/11/02 09:40:20;;;;;;;0.98;0.63;;;21.30;55.00;;;;;;5055343;28;20053;-54
2021/11/02 09:43:01;;;;;;;1.98;0.85;;;21.30;55.00;;;;;;5062300;28;20094;-57
2021/11/02 09:45:33;;;;;;;1.52;0.90;;;21.30;55.00;;;;;;5043520;28;20033;-58
2021/11/02 09:48:29;;;;;;;1.77;0.85;;;21.30;55.00;;;;;;5048569;28;20029;-54
2021/11/02 09:51:22;;;;;;;1.20;0.80;;;21.30;55.00;;;;;;5040691;28;20017;-59
2021/11/02 09:54:20;;;;;;;1.90;0.90;;;21.30;55.10;;;;;;5040830;28;20032;-55
2021/11/02 09:57:06;;;;;;;2.10;1.00;;;21.40;55.60;;;;;;5040514;28;20075;-58
2021/11/02 09:59:47;;;;;;;3.22;1.20;;;21.50;55.50;;;;;;5035003;28;20071;-58
2021/11/02 10:02:15;;;;;;;2.80;1.27;;;21.70;55.30;;;;;;5038375;28;20041;-58
2021/11/02 10:05:00;;;;;;;1.88;1.10;;;21.80;55.10;;;;;;5038213;28;20061;-58
2021/11/02 10:07:41;;;;;;;3.60;1.27;;;22.00;55.00;;;;;;5031419;28;20037;-58
2021/11/02 10:10:21;;;;;;;2.50;1.00;;;22.10;54.60;;;;;;5043452;28;20052;-57
2021/11/02 10:13:06;;;;;;;3.65;1.50;;;22.30;54.50;;;;;;5044949;28;20091;-57
2021/11/02 10:15:53;;;;;;;2.17;1.15;;;22.40;54.20;;;;;;5040207;28;20047;-57
2021/11/02 10:18:30;;;;;;;5.50;1.08;;;22.50;53.90;;;;;;5033123;28;20104;-54
2021/11/02 10:20:59;;;;;;;1.75;1.00;;;22.70;53.70;;;;;;5032008;28;20037;-58
2021/11/02 10:24:03;;;;;;;2.65;1.23;;;22.80;53.50;;;;;;5043819;28;20029;-52
2021/11/02 10:26:49;;;;;;;3.53;1.40;;;22.90;53.20;;;;;;5035027;28;20066;-58
2021/11/02 10:29:34;;;;;;;2.80;1.17;;;23.10;52.90;;;;;;5042953;28;20032;-58
2021/11/02 10:32:06;;;;;;;5.28;1.20;;;23.20;52.70;;;;;;5037833;28;20098;-58
2021/11/02 10:34:50;;;;;;;2.22;1.10;;;23.30;52.50;;;;;;5039073;28;20051;-57
2021/11/02 10:37:24;;;;;;;2.92;1.10;;;23.30;52.30;;;;;;5042762;28;20033;-56
2021/11/02 10:40:19;;;;;;;2.80;1.00;;;23.20;52.30;;;;;;5031828;28;20037;-55
2021/11/02 10:43:03;;;;;;;1.90;0.90;;;23.10;52.50;;;;;;5024252;28;20049;-57
2021/11/02 10:45:30;;;;;;;2.58;1.00;;;23.10;52.60;;;;;;5037632;28;20040;-56
2021/11/02 10:48:04;;;;;;;2.25;0.95;;;23.10;52.60;;;;;;5046903;28;20031;-57
2021/11/02 10:50:31;;;;;;;2.45;1.05;;;23.10;52.70;;;;;;5039534;28;20422;-58
2021/11/02 10:52:58;;;;;;;2.45;0.90;;;23.00;52.70;;;;;;5034291;28;20067;-58
2021/11/02 10:55:54;;;;;;;1.80;0.90;;;23.00;52.80;;;;;;5043511;28;20469;-57
2021/11/02 10:58:35;;;;;;;1.67;0.82;;;22.90;52.70;;;;;;5038917;28;20136;-56
2021/11/02 11:01:04;;;;;;;2.20;1.00;;;22.90;52.70;;;;;;5049464;28;20036;-58
2021/11/02 11:03:31;;;;;;;1.67;0.88;;;22.90;52.80;;;;;;5043123;28;20138;-58
2021/11/02 11:06:02;;;;;;;1.60;0.90;;;22.90;52.80;;;;;;5053211;28;20024;-50
2021/11/02 11:08:32;;;;;;;2.20;0.82;;;22.90;52.80;;;;;;5039041;28;20025;-58
2021/11/02 11:10:59;;;;;;;2.65;0.80;;;22.90;52.80;;;;;;5045041;28;20484;-58
2021/11/02 11:13:28;;;;;;;1.40;0.90;;;22.90;52.80;;;;;;5046801;28;20045;-57
2021/11/02 11:16:06;;;;;;;2.20;0.93;;;22.80;52.80;;;;;;5044089;28;20025;-54
2021/11/02 11:18:49;;;;;;;1.40;0.80;;;22.80;52.80;;;;;;5045305;28;20064;-54
2021/11/02 11:21:16;;;;;;;1.77;0.90;;;22.80;52.80;;;;;;5046004;28;20042;-58
2021/11/02 11:23:43;;;;;;;1.27;0.80;;;22.80;52.80;;;;;;5040081;28;20034;-56
2021/11/02 11:26:09;;;;;;;2.83;0.80;;;22.80;52.80;;;;;;5045780;28;20040;-55
2021/11/02 11:28:37;;;;;;;1.23;0.80;;;22.80;52.80;;;;;;5046344;28;20025;-56
2021/11/02 11:31:03;;;;;;;1.67;0.80;;;22.80;52.80;;;;;;5039635;28;20779;-57
2021/11/02 11:33:30;;;;;;;1.30;0.80;;;22.80;52.80;;;;;;5044427;28;20033;-53
2021/11/02 11:36:01;;;;;;;1.55;0.80;;;22.80;52.80;;;;;;5046154;28;20036;-58
2021/11/02 11:38:35;;;;;;;0.95;0.70;;;22.70;52.80;;;;;;5058439;28;20134;-58
2021/11/02 11:41:03;;;;;;;1.70;0.80;;;22.70;52.80;;;;;;5038863;28;20037;-57
2021/11/02 11:43:32;;;;;;;1.60;0.80;;;22.70;52.80;;;;;;5049435;28;20075;-52
2021/11/02 11:46:01;;;;;;;1.65;0.80;;;22.70;52.90;;;;;;5041285;28;20086;-56
2021/11/02 11:48:27;;;;;;;2.33;0.85;;;22.70;52.90;;;;;;5044905;28;20033;-57
2021/11/02 11:50:54;;;;;;;1.20;0.77;;;22.70;52.90;;;;;;5035718;28;20386;-58
2021/11/02 11:53:22;;;;;;;1.58;0.80;;;22.70;52.90;;;;;;5038468;28;20562;-57
2021/11/02 11:56:06;;;;;;;1.10;0.70;;;22.60;52.90;;;;;;5043924;28;20105;-58
2021/11/02 11:58:33;;;;;;;1.45;0.80;;;22.60;52.90;;;;;;5033455;28;20105;-58
2021/11/02 12:01:05;;;;;;;1.52;0.80;;;22.60;52.90;;;;;;5041926;28;20033;-57
2021/11/02 12:03:49;;;;;;;1.48;0.88;;;22.60;53.00;;;;;;5044391;28;20037;-56
2021/11/02 12:06:45;;;;;;;2.50;1.13;;;22.70;53.00;;;;;;5036107;28;20036;-57
2021/11/02 12:09:20;;;;;;;3.03;1.00;;;22.70;52.90;;;;;;5035438;28;20112;-57
2021/11/02 12:11:47;;;;;;;1.75;0.80;;;22.70;52.80;;;;;;5052553;28;20071;-59
2021/11/02 12:14:22;;;;;;;2.28;1.20;;;22.70;52.80;;;;;;5042066;28;20204;-57
2021/11/02 12:16:48;;;;;;;1.92;0.90;;;22.70;52.70;;;;;;5039764;28;20060;-58
2021/11/02 12:20:03;;;;;;;1.92;1.00;;;22.70;52.70;;;;;;5043506;28;20099;-58
2021/11/02 12:22:39;;;;;;;1.55;0.80;;;22.70;52.70;;;;;;4974100;28;20070;-57
2021/11/02 12:25:17;;;;;;;1.60;0.73;;;22.80;52.70;;;;;;4977078;28;20106;-55
2021/11/02 12:27:46;;;;;;;1.85;1.05;;;22.80;52.70;;;;;;5022080;28;20056;-58
2021/11/02 12:30:14;;;;;;;1.70;0.90;;;22.80;52.60;;;;;;5050469;28;20021;-58
2021/11/02 12:32:51;;;;;;;1.48;0.93;;;22.80;52.60;;;;;;5056494;28;20467;-54
2021/11/02 12:35:28;;;;;;;1.55;0.80;;;22.80;52.50;;;;;;5047629;28;20040;-57
2021/11/02 12:37:57;;;;;;;3.20;0.93;;;22.80;52.50;;;;;;5046119;28;20409;-58
2021/11/02 12:40:27;;;;;;;1.93;0.80;;;22.90;52.50;;;;;;5045865;28;20125;-59
2021/11/02 12:42:53;;;;;;;1.75;0.90;;;22.90;52.40;;;;;;5041347;28;20025;-59
2021/11/02 12:45:22;;;;;;;2.22;0.88;;;22.90;52.40;;;;;;5051305;28;20035;-58
2021/11/02 12:47:49;;;;;;;3.20;0.80;;;22.90;52.30;;;;;;5043790;28;20037;-60
2021/11/02 12:50:18;;;;;;;2.25;0.80;;;22.90;52.30;;;;;;5042403;28;20110;-61
2021/11/02 12:52:45;;;;;;;2.35;1.10;;;22.90;52.20;;;;;;5046386;28;20059;-56
2021/11/02 12:55:15;;;;;;;1.58;0.90;;;22.90;52.20;;;;;;5037143;28;20029;-58
2021/11/02 12:57:44;;;;;;;1.25;0.70;;;22.90;52.10;;;;;;5033941;28;20033;-58
2021/11/02 13:00:11;;;;;;;;;;;22.90;52.20;;;;;;5036445;28;20040;-60
2021/11/02 13:02:39;;;;;;;1.23;0.82;;;22.90;52.60;;;;;;5055893;28;19917;-59
2021/11/02 13:05:19;;;;;;;1.48;0.70;;;22.90;52.10;;;;;;5033249;28;20533;-59
2021/11/02 13:07:54;;;;;;;1.38;0.70;;;22.90;52.10;;;;;;5041203;28;20131;-60
2021/11/02 13:10:21;;;;;;;1.00;0.70;;;22.90;52.10;;;;;;5040055;28;20044;-58
2021/11/02 13:12:52;;;;;;;1.38;0.80;;;22.90;52.10;;;;;;5045482;28;20017;-58
2021/11/02 13:15:19;;;;;;;1.73;0.95;;;23.00;52.10;;;;;;5038612;28;20127;-55
2021/11/02 13:17:49;;;;;;;1.02;0.70;;;22.90;52.00;;;;;;5031668;28;20060;-59
2021/11/02 13:20:34;;;;;;;1.38;0.80;;;23.00;52.20;;;;;;5040172;28;20100;-59
2021/11/02 13:23:00;;;;;;;1.35;0.80;;;23.00;52.00;;;;;;5043881;28;20508;-59
2021/11/02 13:25:40;;;;;;;1.77;0.70;;;23.00;52.00;;;;;;5042154;28;20082;-60
2021/11/02 13:28:06;;;;;;;1.30;0.70;;;23.00;52.00;;;;;;5052057;28;20040;-61
2021/11/02 13:30:34;;;;;;;1.60;0.80;;;23.00;52.00;;;;;;5046652;28;20461;-60
2021/11/02 13:33:04;;;;;;;1.08;0.80;;;23.00;52.00;;;;;;5040602;28;20108;-59
2021/11/02 13:35:51;;;;;;;1.58;0.88;;;23.00;52.00;;;;;;5038173;28;20545;-60
2021/11/02 13:38:29;;;;;;;2.05;0.75;;;23.00;51.90;;;;;;5030480;28;20025;-58
2021/11/02 13:41:23;;;;;;;1.30;0.70;;;23.00;51.90;;;;;;5030174;28;20095;-59
2021/11/02 13:43:50;;;;;;;1.58;0.80;;;23.00;51.90;;;;;;5036765;28;20025;-58
2021/11/02 13:46:19;;;;;;;1.00;0.60;;;23.00;51.80;;;;;;5038680;28;20036;-58
2021/11/02 13:48:45;;;;;;;1.43;0.83;;;23.00;51.80;;;;;;5039421;28;20029;-58
2021/11/02 13:51:13;;;;;;;2.17;0.80;;;23.00;51.80;;;;;;5037517;28;20324;-62
2021/11/02 13:53:40;;;;;;;1.50;0.70;;;23.00;51.80;;;;;;5033880;28;20032;-61
2021/11/02 13:56:12;;;;;;;1.98;1.08;;;23.00;51.70;;;;;;5034744;28;20029;-57
2021/11/02 13:58:39;;;;;;;1.25;0.77;;;23.00;51.70;;;;;;5038631;28;20044;-61
2021/11/02 14:01:26;;;;;;;1.35;0.80;;;23.00;51.70;;;;;;5047914;28;20064;-61
2021/11/02 14:03:59;;;;;;;1.23;0.80;;;23.00;51.70;;;;;;5043971;28;20272;-61
2021/11/02 14:06:27;;;;;;;1.58;0.70;;;23.10;51.70;;;;;;5039726;28;20025;-61
2021/11/02 14:08:54;;;;;;;1.65;0.80;;;23.10;51.60;;;;;;5038305;28;20017;-61
2021/11/02 14:11:29;;;;;;;2.08;0.90;;;23.10;51.60;;;;;;5043522;28;20749;-58
2021/11/02 14:13:55;;;;;;;1.08;0.70;;;23.10;51.60;;;;;;5046895;28;20092;-61
2021/11/02 14:16:28;;;;;;;1.60;0.70;;;23.20;51.70;;;;;;5035247;28;20041;-61
2021/11/02 14:18:54;;;;;;;1.65;0.90;;;23.20;51.60;;;;;;5036435;28;20464;-60
2021/11/02 14:21:48;;;;;;;0.90;0.60;;;23.20;51.50;;;;;;5038137;28;20065;-60
2021/11/02 14:24:15;;;;;;;1.63;0.70;;;23.20;51.50;;;;;;5035212;28;20039;-60
2021/11/02 14:26:47;;;;;;;1.23;0.70;;;23.20;51.50;;;;;;5041784;28;20180;-61
2021/11/02 14:29:14;;;;;;;2.63;0.90;;;23.30;51.50;;;;;;5034053;28;20056;-60
2021/11/02 14:31:41;;;;;;;1.55;0.80;;;23.20;51.40;;;;;;5040500;28;20484;-59
2021/11/02 14:34:25;;;;;;;2.05;0.93;;;23.30;51.60;;;;;;5048424;28;20039;-60
2021/11/02 14:37:13;;;;;;;2.25;0.80;;;23.30;51.50;;;;;;5028575;28;20503;-60
2021/11/02 14:40:00;;;;;;;1.17;0.80;;;23.30;51.50;;;;;;5033744;28;20148;-63
2021/11/02 14:42:46;;;;;;;2.08;0.85;;;23.30;51.50;;;;;;5031647;28;20116;-60
2021/11/02 14:45:15;;;;;;;2.30;0.60;;;23.30;51.50;;;;;;5029092;28;20029;-61
2021/11/02 14:47:41;;;;;;;1.55;0.80;;;23.30;51.50;;;;;;5038049;28;20144;-57
2021/11/02 14:50:34;;;;;;;1.48;0.70;;;23.30;51.40;;;;;;5036041;28;20199;-60
2021/11/02 14:53:30;;;;;;;1.40;0.70;;;23.30;51.40;;;;;;5027836;28;20038;-57
2021/11/02 14:56:00;;;;;;;1.40;0.70;;;23.30;51.50;;;;;;5036108;28;20040;-61
2021/11/02 14:58:43;;;;;;;1.23;0.70;;;23.30;51.50;;;;;;5040467;28;20710;-60
2021/11/02 15:01:11;;;;;;;2.15;0.98;;;23.30;51.60;;;;;;5036128;28;20087;-61
2021/11/02 15:03:38;;;;;;;1.38;0.70;;;23.30;51.50;;;;;;5032027;28;20032;-59
2021/11/02 15:06:06;;;;;;;2.15;0.70;;;23.30;51.60;;;;;;5037971;28;20393;-60
2021/11/02 15:08:34;;;;;;;1.38;0.60;;;23.20;51.50;;;;;;5040939;28;20040;-60
2021/11/02 15:11:20;;;;;;;1.38;0.75;;;23.30;51.60;;;;;;5031648;28;20025;-58
2021/11/02 15:13:54;;;;;;;1.27;0.60;;;23.30;51.60;;;;;;5035127;28;20045;-58
2021/11/02 15:16:21;;;;;;;2.65;0.90;;;23.20;51.50;;;;;;5035898;28;20032;-57
2021/11/02 15:18:50;;;;;;;1.58;0.70;;;23.20;51.50;;;;;;5039224;28;20055;-58
2021/11/02 15:21:31;;;;;;;3.20;0.63;;;23.20;51.50;;;;;;5040223;28;20473;-58
2021/11/02 15:24:05;;;;;;;1.40;0.80;;;23.20;51.60;;;;;;5031913;28;20895;-59
2021/11/02 15:26:49;;;;;;;2.15;0.80;;;23.20;51.60;;;;;;5033802;28;20017;-58
2021/11/02 15:29:17;;;;;;;0.70;0.60;;;23.20;51.60;;;;;;5031454;28;20098;-58
2021/11/02 15:32:13;;;;;;;1.10;0.77;;;23.20;51.70;;;;;;5042680;28;20044;-58
2021/11/02 15:34:43;;;;;;;1.27;0.65;;;23.10;51.70;;;;;;5036205;28;20362;-59
2021/11/02 15:37:12;;;;;;;1.17;0.70;;;23.10;51.70;;;;;;5046259;28;20078;-58
2021/11/02 15:39:39;;;;;;;1.02;0.60;;;23.20;51.80;;;;;;5041152;28;20105;-58
2021/11/02 15:42:20;;;;;;;0.85;0.55;;;23.20;51.90;;;;;;5031649;28;20797;-57
2021/11/02 15:44:46;;;;;;;2.15;0.90;;;23.10;51.90;;;;;;5039818;28;20072;-57
2021/11/02 15:47:15;;;;;;;1.45;0.80;;;23.20;51.90;;;;;;5036857;28;20619;-54
2021/11/02 15:49:45;;;;;;;3.10;0.85;;;23.20;51.80;;;;;;5037440;28;20025;-58
2021/11/02 15:52:10;;;;;;;2.92;0.70;;;23.20;51.90;;;;;;5038160;28;20031;-58
2021/11/02 15:54:45;;;;;;;1.67;0.80;;;23.20;51.80;;;;;;5037571;28;20036;-59
2021/11/02 15:57:11;;;;;;;1.50;0.73;;;23.20;51.80;;;;;;5041793;28;20108;-59
2021/11/02 15:59:36;;;;;;;1.00;0.70;;;23.20;52.00;;;;;;5036136;28;20822;-56
2021/11/02 16:02:03;;;;;;;2.20;0.70;;;23.20;52.00;;;;;;5034887;28;20040;-57
2021/11/02 16:04:29;;;;;;;0.95;0.60;;;23.20;51.90;;;;;;5048493;28;20060;-55
2021/11/02 16:06:56;;;;;;;1.85;0.90;;;23.20;51.80;;;;;;5036728;28;20786;-58
2021/11/02 16:09:23;;;;;;;2.25;0.80;;;23.30;51.80;;;;;;5041402;28;20497;-58
2021/11/02 16:11:49;;;;;;;1.48;0.70;;;23.20;51.70;;;;;;5050764;28;20037;-58
2021/11/02 16:14:18;;;;;;;0.82;0.63;;;23.30;51.70;;;;;;5040671;28;20106;-58
2021/11/02 16:16:47;;;;;;;1.40;0.90;;;23.30;51.60;;;;;;5046476;28;20035;-58
2021/11/02 16:19:13;;;;;;;1.55;0.70;;;23.30;51.60;;;;;;5037516;28;20112;-59
2021/11/02 16:21:39;;;;;;;1.40;0.70;;;23.30;51.50;;;;;;5039048;28;20129;-58
2021/11/02 16:24:11;;;;;;;2.00;0.80;;;23.30;51.40;;;;;;5040209;28;20033;-56
2021/11/02 16:26:41;;;;;;;1.42;0.75;;;23.30;51.40;;;;;;5043826;28;20112;-56
2021/11/02 16:29:17;;;;;;;0.82;0.60;;;23.30;51.40;;;;;;5037613;28;20083;-59
2021/11/02 16:31:46;;;;;;;1.88;0.68;;;23.30;51.60;;;;;;5036466;28;20079;-59
2021/11/02 16:34:19;;;;;;;1.30;0.60;;;23.30;51.50;;;;;;5036211;28;20029;-58
2021/11/02 16:36:45;;;;;;;2.25;0.80;;;23.30;51.30;;;;;;5023522;28;20025;-56
2021/11/02 16:39:14;;;;;;;2.28;0.70;;;23.40;51.30;;;;;;5036999;28;20086;-58
2021/11/02 16:42:01;;;;;;;1.73;0.70;;;23.30;51.30;;;;;;5026955;28;20060;-58
2021/11/02 16:44:36;;;;;;;1.92;0.70;;;23.30;51.30;;;;;;5034127;28;20043;-56
2021/11/02 16:47:14;;;;;;;1.23;0.63;;;23.40;51.30;;;;;;5024927;28;20483;-58
2021/11/02 16:49:40;;;;;;;2.45;0.90;;;23.40;51.30;;;;;;5036552;28;20025;-58
2021/11/02 16:52:10;;;;;;;1.25;0.70;;;23.40;51.30;;;;;;5031920;28;20223;-57
2021/11/02 16:54:39;;;;;;;;;;;23.40;51.30;;;;;;5038245;28;20682;-58
2021/11/02 16:57:21;;;;;;;1.77;0.80;;;23.40;51.30;;;;;;5033728;28;19912;-58
2021/11/02 16:59:59;;;;;;;1.23;0.60;;;23.40;51.30;;;;;;5027600;28;20091;-57
2021/11/02 17:02:35;;;;;;;2.97;0.90;;;23.40;51.30;;;;;;5034602;28;20040;-57
2021/11/02 17:05:01;;;;;;;2.20;0.70;;;23.40;51.40;;;;;;5031954;28;20029;-58
2021/11/02 17:08:00;;;;;;;1.42;0.68;;;23.40;51.70;;;;;;5023294;28;20027;-57
2021/11/02 17:10:27;;;;;;;2.90;0.90;;;23.40;51.70;;;;;;5023869;28;20039;-58
2021/11/02 17:13:16;;;;;;;2.65;0.93;;;23.40;51.70;;;;;;5025832;28;20036;-57
2021/11/02 17:15:44;;;;;;;1.95;0.80;;;23.40;52.00;;;;;;5029976;28;20033;-58
2021/11/02 17:18:15;;;;;;;2.22;0.80;;;23.30;51.80;;;;;;5028845;28;20052;-58
2021/11/02 17:20:42;;;;;;;1.25;0.68;;;23.30;51.90;;;;;;5025952;28;20060;-57
2021/11/02 17:23:09;;;;;;;3.25;1.02;;;23.30;51.90;;;;;;5031405;28;20034;-57
2021/11/02 17:25:36;;;;;;;1.98;0.80;;;23.30;51.90;;;;;;5032972;28;20786;-56
2021/11/02 17:28:03;;;;;;;2.00;0.70;;;23.30;52.00;;;;;;5030109;28;20052;-59
2021/11/02 17:30:34;;;;;;;1.92;0.80;;;23.40;52.30;;;;;;5033705;28;20033;-53
2021/11/02 17:33:01;;;;;;;2.40;0.80;;;23.30;52.00;;;;;;5026749;28;20059;-58
2021/11/02 17:35:27;;;;;;;1.92;1.05;;;23.30;52.10;;;;;;5029007;28;20033;-58
2021/11/02 17:37:55;;;;;;;3.47;1.30;;;23.40;52.10;;;;;;5036106;28;20044;-56
2021/11/02 17:40:22;;;;;;;3.88;1.50;;;23.40;52.20;;;;;;5031513;28;20032;-57
2021/11/02 17:42:54;;;;;;;2.67;1.50;;;23.40;52.10;;;;;;5035194;28;20065;-59
2021/11/02 17:45:21;;;;;;;3.08;1.40;;;23.40;52.00;;;;;;5027568;28;20037;-56
2021/11/02 17:47:48;;;;;;;5.07;1.70;;;23.40;52.00;;;;;;5029397;28;20048;-59
2021/11/02 17:50:15;;;;;;;3.72;1.60;;;23.40;51.90;;;;;;5030276;28;20919;-58
2021/11/02 17:52:42;;;;;;;2.97;1.60;;;23.50;52.00;;;;;;5031043;28;20033;-59
2021/11/02 17:55:09;;;;;;;2.83;1.48;;;23.40;51.90;;;;;;5039913;28;20036;-55
2021/11/02 17:57:43;;;;;;;2.85;1.60;;;23.50;52.00;;;;;;5036891;28;20774;-58
2021/11/02 18:00:12;;;;;;;3.63;1.60;;;23.50;52.00;;;;;;5033980;28;20040;-59
2021/11/02 18:02:38;;;;;;;4.05;1.85;;;23.50;52.00;;;;;;5039235;28;20072;-59